Time;durP1;ratioP1;P1;durP2;ratioP2;P2;SDS_P1;SDS_P2;PMS_P1;PMS_P2;Temp;Humidity;BMP_temperature;BMP_pressure;BME280_temperature;BME280_humidity;BME280_pressure;Samples;Min_cycle;Max_cycle;Signal;HPM_P1;HPM_P2
2023/05/23 00:01:01;;;;;;;16.98;11.75;;;;;;;;;;5010936;28;20112;-64
2023/05/23 00:03:30;;;;;;;20.90;13.25;;;;;;;;;;5008445;28;20581;-63
2023/05/23 00:05:55;;;;;;;20.33;13.18;;;;;;;;;;5001665;28;20045;-63
2023/05/23 00:08:21;;;;;;;17.23;13.00;;;;;;;;;;5003226;28;20029;-64
2023/05/23 00:10:47;;;;;;;26.17;14.30;;;;;;;;;;5009306;28;20049;-63
2023/05/23 00:13:13;;;;;;;21.83;13.88;;;;;;;;;;5009571;28;20038;-63
2023/05/23 00:15:40;;;;;;;28.50;14.85;;;;;;;;;;5009288;28;20693;-62
2023/05/23 00:18:07;;;;;;;22.98;14.68;;;;;;;;;;5023190;28;20099;-63
2023/05/23 00:20:35;;;;;;;30.10;14.73;;;;;;;;;;5024406;28;20030;-63
2023/05/23 00:23:02;;;;;;;26.55;15.95;;;;;;;;;;5002007;28;20541;-62
2023/05/23 00:25:32;;;;;;;30.30;16.13;;;;;;;;;;4999250;28;20113;-64
2023/05/23 00:28:02;;;;;;;31.27;17.23;;;;;;;;;;5004182;28;20041;-63
2023/05/23 00:30:32;;;;;;;25.00;16.17;;;;;;;;;;5006090;28;20389;-63
2023/05/23 00:32:59;;;;;;;27.77;16.88;;;;;;;;;;5000731;28;20058;-64
2023/05/23 00:35:25;;;;;;;34.95;18.55;;;;;;;;;;4987517;28;20489;-63
2023/05/23 00:37:51;;;;;;;34.05;18.05;;;;;;;;;;5005444;28;20120;-63
2023/05/23 00:40:17;;;;;;;34.42;17.67;;;;;;;;;;4986852;28;20080;-63
2023/05/23 00:42:43;;;;;;;29.50;18.05;;;;;;;;;;4984301;28;20038;-62
2023/05/23 00:45:11;;;;;;;30.75;17.88;;;;;;;;;;4991495;28;20038;-64
2023/05/23 00:47:41;;;;;;;32.35;19.05;;;;;;;;;;5002767;28;20500;-62
2023/05/23 00:50:14;;;;;;;30.70;18.25;;;;;;;;;;4989758;28;20113;-63
2023/05/23 00:52:42;;;;;;;43.55;21.27;;;;;;;;;;4997007;28;20041;-63
2023/05/23 00:55:08;;;;;;;37.45;20.00;;;;;;;;;;4979648;28;20068;-63
2023/05/23 00:57:34;;;;;;;32.92;20.33;;;;;;;;;;4987882;28;20064;-62
2023/05/23 01:00:00;;;;;;;35.10;18.88;;;;;;;;;;5000868;28;20034;-62
2023/05/23 01:02:27;;;;;;;43.65;20.55;;;;;;;;;;4979479;28;20088;-63
2023/05/23 01:04:54;;;;;;;39.55;21.00;;;;;;;;;;4994274;28;20040;-63
2023/05/23 01:07:20;;;;;;;44.33;21.48;;;;;;;;;;4988968;28;20038;-64
2023/05/23 01:09:46;;;;;;;42.70;21.65;;;;;;;;;;4988059;28;20069;-63
2023/05/23 01:12:49;;;;;;;50.85;24.15;;;;;;;;;;4999831;28;20470;-63
2023/05/23 01:15:18;;;;;;;45.00;22.35;;;;;;;;;;5003069;28;20033;-63
2023/05/23 01:17:57;;;;;;;51.08;21.65;;;;;;;;;;4980393;28;20398;-63
2023/05/23 01:20:27;;;;;;;40.88;22.33;;;;;;;;;;5008118;28;20062;-63
2023/05/23 01:22:59;;;;;;;47.38;23.75;;;;;;;;;;5008635;28;20029;-62
2023/05/23 01:26:02;;;;;;;54.22;26.65;;;;;;;;;;5004428;28;20698;-63
2023/05/23 01:28:35;;;;;;;49.17;23.50;;;;;;;;;;5002913;28;20090;-63
2023/05/23 01:31:03;;;;;;;46.53;22.88;;;;;;;;;;4986886;28;20041;-62
2023/05/23 01:33:30;;;;;;;47.53;23.38;;;;;;;;;;5005553;28;20383;-64
2023/05/23 01:36:01;;;;;;;45.20;22.83;;;;;;;;;;4984080;28;20184;-63
2023/05/23 01:38:26;;;;;;;50.13;24.10;;;;;;;;;;5001510;28;20096;-63
2023/05/23 01:40:53;;;;;;;45.50;23.65;;;;;;;;;;4986398;28;20035;-64
2023/05/23 01:43:19;;;;;;;55.00;25.35;;;;;;;;;;4986100;28;20034;-63
2023/05/23 01:45:45;;;;;;;48.97;23.65;;;;;;;;;;4996315;28;20041;-63
2023/05/23 01:48:12;;;;;;;55.25;24.30;;;;;;;;;;4999694;28;20025;-63
2023/05/23 01:50:38;;;;;;;52.75;22.95;;;;;;;;;;4985007;28;20140;-64
2023/05/23 01:53:04;;;;;;;45.13;23.63;;;;;;;;;;4974753;28;20097;-64
2023/05/23 01:55:30;;;;;;;50.53;23.10;;;;;;;;;;4995877;28;20395;-63
2023/05/23 01:57:56;;;;;;;55.78;25.05;;;;;;;;;;4995724;28;20132;-63
2023/05/23 02:00:23;;;;;;;52.15;24.60;;;;;;;;;;4982817;28;20061;-64
2023/05/23 02:02:48;;;;;;;50.47;21.55;;;;;;;;;;5000136;28;20029;-63
2023/05/23 02:05:16;;;;;;;40.10;21.50;;;;;;;;;;4976241;28;20030;-64
2023/05/23 02:07:41;;;;;;;48.00;23.60;;;;;;;;;;4987092;28;20037;-63
2023/05/23 02:10:08;;;;;;;46.88;24.20;;;;;;;;;;4987600;28;21319;-63
2023/05/23 02:12:34;;;;;;;43.25;22.65;;;;;;;;;;4979793;28;20518;-64
2023/05/23 02:14:59;;;;;;;60.75;25.08;;;;;;;;;;4999127;28;20121;-63
2023/05/23 02:17:25;;;;;;;48.70;23.35;;;;;;;;;;4988921;28;20100;-64
2023/05/23 02:19:51;;;;;;;56.90;24.83;;;;;;;;;;4982786;28;20042;-63
2023/05/23 02:22:17;;;;;;;59.63;25.38;;;;;;;;;;4996653;28;20121;-63
2023/05/23 02:24:42;;;;;;;52.92;25.30;;;;;;;;;;5001679;28;20053;-63
2023/05/23 02:27:08;;;;;;;56.25;24.27;;;;;;;;;;4981439;28;20037;-63
2023/05/23 02:29:33;;;;;;;59.38;25.60;;;;;;;;;;5003021;28;20037;-63
2023/05/23 02:31:59;;;;;;;61.10;27.17;;;;;;;;;;4998241;28;20069;-62
2023/05/23 02:34:25;;;;;;;60.05;26.20;;;;;;;;;;5003976;28;20305;-64
2023/05/23 02:36:50;;;;;;;65.80;27.45;;;;;;;;;;4985030;28;20038;-64
2023/05/23 02:39:16;;;;;;;51.90;23.98;;;;;;;;;;4981575;28;20072;-63
2023/05/23 02:41:43;;;;;;;55.47;24.92;;;;;;;;;;4981238;28;20052;-64
2023/05/23 02:44:09;;;;;;;52.00;24.90;;;;;;;;;;4982129;28;20034;-64
2023/05/23 02:46:35;;;;;;;60.63;24.30;;;;;;;;;;4981686;28;20069;-64
2023/05/23 02:49:02;;;;;;;50.40;24.30;;;;;;;;;;4971870;28;20037;-64
2023/05/23 02:51:27;;;;;;;54.20;26.77;;;;;;;;;;4983981;28;20034;-63
2023/05/23 02:53:53;;;;;;;69.10;28.50;;;;;;;;;;4987782;28;20026;-63
2023/05/23 02:56:21;;;;;;;56.88;25.77;;;;;;;;;;4985403;28;20412;-62
2023/05/23 02:58:46;;;;;;;65.55;26.60;;;;;;;;;;4999154;28;20045;-63
2023/05/23 03:01:12;;;;;;;61.20;26.10;;;;;;;;;;4989141;28;20030;-64
2023/05/23 03:03:38;;;;;;;63.05;28.42;;;;;;;;;;4979571;28;20038;-64
2023/05/23 03:06:05;;;;;;;63.75;29.20;;;;;;;;;;4982286;28;21227;-64
2023/05/23 03:08:31;;;;;;;80.00;31.45;;;;;;;;;;4987155;28;20050;-63
2023/05/23 03:10:56;;;;;;;71.50;29.80;;;;;;;;;;4986811;28;20578;-63
2023/05/23 03:13:22;;;;;;;73.10;29.65;;;;;;;;;;4989569;28;20042;-63
2023/05/23 03:15:48;;;;;;;63.80;30.23;;;;;;;;;;4993347;28;20041;-63
2023/05/23 03:18:13;;;;;;;73.07;31.58;;;;;;;;;;4995241;28;20034;-65
2023/05/23 03:20:39;;;;;;;60.85;27.17;;;;;;;;;;4980830;28;20030;-65
2023/05/23 03:23:05;;;;;;;61.35;25.85;;;;;;;;;;4989277;28;20052;-65
2023/05/23 03:25:30;;;;;;;62.92;28.70;;;;;;;;;;4985301;28;20041;-65
2023/05/23 03:27:56;;;;;;;57.72;26.33;;;;;;;;;;4987819;28;20375;-65
2023/05/23 03:30:21;;;;;;;64.90;31.50;;;;;;;;;;4991840;28;20030;-65
2023/05/23 03:32:47;;;;;;;70.22;29.98;;;;;;;;;;4994845;28;20037;-65
2023/05/23 03:35:12;;;;;;;68.43;28.85;;;;;;;;;;4986525;28;20042;-65
2023/05/23 03:37:38;;;;;;;57.85;26.15;;;;;;;;;;4985598;28;20044;-65
2023/05/23 03:40:06;;;;;;;60.88;28.70;;;;;;;;;;4990325;28;20045;-65
2023/05/23 03:42:32;;;;;;;60.13;28.95;;;;;;;;;;4982201;28;20069;-65
2023/05/23 03:44:57;;;;;;;59.13;27.00;;;;;;;;;;4989898;28;20488;-65
2023/05/23 03:47:23;;;;;;;59.35;27.50;;;;;;;;;;4985101;28;20034;-65
2023/05/23 03:49:49;;;;;;;58.35;28.10;;;;;;;;;;4993310;28;20040;-66
2023/05/23 03:52:15;;;;;;;53.38;25.52;;;;;;;;;;5008021;28;20029;-65
2023/05/23 03:54:41;;;;;;;58.17;29.30;;;;;;;;;;4989458;28;20029;-65
2023/05/23 03:57:08;;;;;;;64.13;29.75;;;;;;;;;;4985713;28;20065;-65
2023/05/23 03:59:35;;;;;;;61.67;28.60;;;;;;;;;;4991548;28;20030;-66
2023/05/23 04:02:02;;;;;;;60.75;28.50;;;;;;;;;;4991454;28;20037;-65
2023/05/23 04:04:28;;;;;;;55.63;27.60;;;;;;;;;;4984857;28;20045;-65
2023/05/23 04:06:54;;;;;;;56.45;27.38;;;;;;;;;;4991336;28;20792;-65
2023/05/23 04:09:20;;;;;;;54.67;27.73;;;;;;;;;;4989717;28;20025;-65
2023/05/23 04:11:48;;;;;;;52.60;27.13;;;;;;;;;;4982572;28;20046;-65
2023/05/23 04:14:14;;;;;;;58.63;28.20;;;;;;;;;;4989262;28;20026;-65
2023/05/23 04:16:41;;;;;;;51.55;25.45;;;;;;;;;;4987832;28;20489;-65
2023/05/23 04:19:07;;;;;;;54.90;27.77;;;;;;;;;;4983674;28;20500;-65
2023/05/23 04:21:34;;;;;;;54.30;26.60;;;;;;;;;;4987019;28;20120;-65
2023/05/23 04:24:08;;;;;;;62.30;28.70;;;;;;;;;;4990834;28;20030;-65
2023/05/23 04:26:35;;;;;;;53.58;27.42;;;;;;;;;;4964647;28;20405;-65
2023/05/23 04:29:04;;;;;;;54.60;30.23;;;;;;;;;;5005753;28;20041;-65
2023/05/23 04:31:32;;;;;;;54.05;27.80;;;;;;;;;;5008465;28;20038;-65
2023/05/23 04:33:58;;;;;;;54.22;26.75;;;;;;;;;;4992016;28;20042;-65
2023/05/23 04:36:24;;;;;;;50.33;23.52;;;;;;;;;;5006581;28;20425;-65
2023/05/23 04:38:52;;;;;;;56.38;28.38;;;;;;;;;;4980237;28;20038;-65
2023/05/23 04:41:22;;;;;;;49.72;28.42;;;;;;;;;;4981237;28;20034;-65
2023/05/23 04:44:04;;;;;;;45.95;24.27;;;;;;;;;;4978084;28;20080;-65
2023/05/23 04:46:45;;;;;;;47.15;24.88;;;;;;;;;;4988657;28;20037;-65
2023/05/23 04:49:20;;;;;;;52.60;28.40;;;;;;;;;;4986854;28;20038;-65
2023/05/23 04:51:46;;;;;;;51.53;29.40;;;;;;;;;;4990113;28;20034;-65
2023/05/23 04:54:20;;;;;;;48.72;24.90;;;;;;;;;;5006626;28;20457;-66
2023/05/23 04:56:46;;;;;;;52.25;26.48;;;;;;;;;;4983545;28;20246;-66
2023/05/23 04:59:13;;;;;;;57.28;27.83;;;;;;;;;;4986047;28;20044;-66
2023/05/23 05:01:39;;;;;;;45.45;25.90;;;;;;;;;;4971488;28;20034;-66
2023/05/23 05:04:06;;;;;;;43.85;25.35;;;;;;;;;;4989970;28;20029;-66
2023/05/23 05:06:32;;;;;;;50.05;27.60;;;;;;;;;;4990399;28;20041;-66
2023/05/23 05:08:58;;;;;;;60.30;28.48;;;;;;;;;;4987857;28;20117;-66
2023/05/23 05:11:25;;;;;;;43.40;23.10;;;;;;;;;;4984393;28;20377;-66
2023/05/23 05:13:58;;;;;;;53.80;26.35;;;;;;;;;;4984101;28;20132;-66
2023/05/23 05:16:24;;;;;;;44.50;22.35;;;;;;;;;;4978723;28;20113;-66
2023/05/23 05:18:50;;;;;;;42.67;22.38;;;;;;;;;;4983099;28;20421;-66
2023/05/23 05:21:17;;;;;;;47.00;25.15;;;;;;;;;;4986318;28;20030;-66
2023/05/23 05:23:43;;;;;;;47.80;25.40;;;;;;;;;;4985936;28;20486;-66
2023/05/23 05:26:09;;;;;;;48.92;26.90;;;;;;;;;;4983736;28;20030;-66
2023/05/23 05:28:35;;;;;;;43.80;25.77;;;;;;;;;;4984460;28;20038;-66
2023/05/23 05:31:03;;;;;;;48.45;24.17;;;;;;;;;;4983386;28;20048;-66
2023/05/23 05:33:34;;;;;;;42.58;24.02;;;;;;;;;;4984421;28;20037;-66
2023/05/23 05:36:07;;;;;;;46.33;25.88;;;;;;;;;;4985525;28;20042;-65
2023/05/23 05:38:33;;;;;;;46.60;26.27;;;;;;;;;;4980005;28;20084;-66
2023/05/23 05:40:58;;;;;;;33.95;21.63;;;;;;;;;;4984208;28;20042;-66
2023/05/23 05:43:28;;;;;;;42.92;23.50;;;;;;;;;;4976996;28;20034;-66
2023/05/23 05:45:54;;;;;;;38.38;22.08;;;;;;;;;;4988413;28;20050;-66
2023/05/23 05:48:19;;;;;;;39.30;23.25;;;;;;;;;;4982907;28;20045;-66
2023/05/23 05:50:45;;;;;;;45.55;25.67;;;;;;;;;;4988094;28;20033;-66
2023/05/23 05:53:12;;;;;;;43.97;25.30;;;;;;;;;;4980583;28;20076;-66
2023/05/23 05:55:38;;;;;;;35.08;21.40;;;;;;;;;;4980748;28;20061;-67
2023/05/23 05:58:04;;;;;;;39.28;23.77;;;;;;;;;;4980241;28;20081;-66
2023/05/23 06:00:41;;;;;;;37.63;22.70;;;;;;;;;;4989913;28;20112;-66
2023/05/23 06:03:07;;;;;;;46.45;26.60;;;;;;;;;;4999916;28;20501;-65
2023/05/23 06:05:40;;;;;;;41.33;24.25;;;;;;;;;;4986565;28;20053;-66
2023/05/23 06:08:06;;;;;;;46.25;23.25;;;;;;;;;;5002469;28;20417;-66
2023/05/23 06:10:32;;;;;;;45.13;25.05;;;;;;;;;;5001004;28;20088;-66
2023/05/23 06:12:58;;;;;;;45.30;23.02;;;;;;;;;;4979658;28;20034;-66
2023/05/23 06:15:25;;;;;;;39.63;23.42;;;;;;;;;;4985603;28;20030;-66
2023/05/23 06:17:51;;;;;;;39.40;22.08;;;;;;;;;;4983898;28;20113;-66
2023/05/23 06:20:17;;;;;;;39.40;21.50;;;;;;;;;;4985343;28;20073;-66
2023/05/23 06:22:44;;;;;;;39.42;23.25;;;;;;;;;;4984599;28;20099;-66
2023/05/23 06:25:11;;;;;;;41.28;23.55;;;;;;;;;;4989026;28;20034;-66
2023/05/23 06:27:37;;;;;;;33.80;20.83;;;;;;;;;;4998156;28;20057;-66
2023/05/23 06:30:04;;;;;;;40.10;23.73;;;;;;;;;;4985192;28;20033;-66
2023/05/23 06:32:30;;;;;;;38.25;23.05;;;;;;;;;;4986055;28;20049;-66
2023/05/23 06:34:56;;;;;;;35.50;22.05;;;;;;;;;;4982314;28;20049;-66
2023/05/23 06:37:22;;;;;;;45.35;23.85;;;;;;;;;;5006213;28;20033;-66
2023/05/23 06:39:48;;;;;;;38.28;23.63;;;;;;;;;;4990598;28;20335;-66
2023/05/23 06:42:15;;;;;;;35.80;21.85;;;;;;;;;;4984466;28;20460;-66
2023/05/23 06:45:10;;;;;;;35.53;20.98;;;;;;;;;;4939853;28;20060;-66
2023/05/23 06:47:36;;;;;;;35.42;21.75;;;;;;;;;;4984322;28;20022;-66
2023/05/23 06:50:02;;;;;;;40.13;24.20;;;;;;;;;;4982839;28;20045;-66
2023/05/23 06:52:29;;;;;;;40.63;23.17;;;;;;;;;;4985770;28;20045;-66
2023/05/23 06:54:55;;;;;;;32.47;21.13;;;;;;;;;;4991992;28;20034;-66
2023/05/23 06:57:22;;;;;;;33.38;21.13;;;;;;;;;;4985879;28;20398;-66
2023/05/23 06:59:48;;;;;;;41.45;23.05;;;;;;;;;;4990573;28;20049;-66
2023/05/23 07:02:14;;;;;;;35.58;21.67;;;;;;;;;;4988020;28;20041;-66
2023/05/23 07:04:40;;;;;;;36.78;23.83;;;;;;;;;;4984633;28;20555;-66
2023/05/23 07:07:13;;;;;;;39.88;21.17;;;;;;;;;;4989833;28;20041;-66
2023/05/23 07:09:39;;;;;;;37.50;23.20;;;;;;;;;;4987253;28;20044;-66
2023/05/23 07:12:12;;;;;;;36.55;23.35;;;;;;;;;;4985664;28;20491;-66
2023/05/23 07:14:41;;;;;;;34.00;21.92;;;;;;;;;;4985538;28;20505;-65
2023/05/23 07:17:06;;;;;;;31.85;22.45;;;;;;;;;;4992506;28;20061;-65
2023/05/23 07:19:33;;;;;;;35.80;22.50;;;;;;;;;;4984857;28;20057;-65
2023/05/23 07:21:59;;;;;;;38.97;24.25;;;;;;;;;;4981117;28;20026;-66
2023/05/23 07:24:26;;;;;;;39.97;24.65;;;;;;;;;;4986324;28;20540;-65
2023/05/23 07:26:55;;;;;;;36.90;23.83;;;;;;;;;;4984020;28;20034;-66
2023/05/23 07:29:21;;;;;;;39.53;22.73;;;;;;;;;;4984583;28;20034;-66
2023/05/23 07:31:49;;;;;;;44.83;26.40;;;;;;;;;;4983701;28;20128;-65
2023/05/23 07:34:16;;;;;;;42.38;26.15;;;;;;;;;;5001575;28;20293;-65
2023/05/23 07:36:49;;;;;;;31.42;21.88;;;;;;;;;;4986060;28;20651;-65
2023/05/23 07:39:20;;;;;;;36.50;24.40;;;;;;;;;;4982588;28;20034;-66
2023/05/23 07:41:47;;;;;;;47.10;27.63;;;;;;;;;;4989322;28;20481;-65
2023/05/23 07:44:12;;;;;;;34.78;23.50;;;;;;;;;;4982938;28;20026;-64
2023/05/23 07:46:38;;;;;;;36.38;22.80;;;;;;;;;;4985553;28;20065;-65
2023/05/23 07:49:04;;;;;;;27.38;19.35;;;;;;;;;;4980835;28;20033;-66
2023/05/23 07:51:29;;;;;;;29.83;22.23;;;;;;;;;;4988980;28;20042;-65
2023/05/23 07:53:55;;;;;;;27.67;17.23;;;;;;;;;;4989965;28;20113;-65
2023/05/23 07:56:22;;;;;;;30.75;21.00;;;;;;;;;;4988563;28;20034;-65
2023/05/23 07:58:48;;;;;;;33.92;21.95;;;;;;;;;;4983461;28;20278;-65
2023/05/23 08:01:15;;;;;;;31.45;19.58;;;;;;;;;;4982437;28;20409;-66
2023/05/23 08:04:09;;;;;;;26.98;18.13;;;;;;;;;;4999469;28;20104;-66
2023/05/23 08:06:46;;;;;;;26.70;16.75;;;;;;;;;;4986962;28;20572;-66
2023/05/23 08:09:12;;;;;;;26.33;16.77;;;;;;;;;;4992225;28;20442;-65
2023/05/23 08:11:42;;;;;;;24.10;16.83;;;;;;;;;;4988674;28;20113;-64
2023/05/23 08:14:09;;;;;;;27.80;18.92;;;;;;;;;;5006018;28;20555;-65
2023/05/23 08:16:38;;;;;;;27.88;18.75;;;;;;;;;;4999249;28;20044;-65
2023/05/23 08:19:08;;;;;;;32.13;20.27;;;;;;;;;;4985848;28;20118;-65
2023/05/23 08:21:35;;;;;;;29.73;21.05;;;;;;;;;;4979579;28;20215;-65
2023/05/23 08:24:00;;;;;;;31.15;20.70;;;;;;;;;;4999890;28;20034;-65
2023/05/23 08:26:33;;;;;;;30.60;20.27;;;;;;;;;;4989069;28;20084;-65
2023/05/23 08:29:01;;;;;;;30.88;20.27;;;;;;;;;;4983028;28;20504;-66
2023/05/23 08:31:27;;;;;;;25.15;18.70;;;;;;;;;;4980790;28;20116;-66
2023/05/23 08:33:53;;;;;;;30.10;18.60;;;;;;;;;;4983827;28;20509;-66
2023/05/23 08:36:19;;;;;;;18.48;13.50;;;;;;;;;;4985867;28;20037;-66
2023/05/23 08:38:50;;;;;;;24.27;18.60;;;;;;;;;;5008055;28;20161;-66
2023/05/23 08:41:24;;;;;;;20.42;15.30;;;;;;;;;;4985645;28;20033;-66
2023/05/23 08:43:56;;;;;;;20.67;14.35;;;;;;;;;;4981971;28;20050;-65
2023/05/23 08:46:26;;;;;;;16.35;13.35;;;;;;;;;;5006616;28;20044;-66
2023/05/23 08:48:53;;;;;;;27.23;17.13;;;;;;;;;;4977522;28;20042;-66
2023/05/23 08:51:26;;;;;;;23.05;15.00;;;;;;;;;;5004194;28;20038;-65
2023/05/23 08:53:55;;;;;;;16.85;13.13;;;;;;;;;;4981633;28;20089;-64
2023/05/23 08:56:24;;;;;;;17.60;13.65;;;;;;;;;;4984772;28;20046;-65
2023/05/23 08:58:52;;;;;;;18.55;14.00;;;;;;;;;;4982006;28;20050;-65
2023/05/23 09:01:19;;;;;;;18.45;14.57;;;;;;;;;;4981054;28;20034;-66
2023/05/23 09:03:46;;;;;;;21.17;14.75;;;;;;;;;;4986179;28;20041;-64
2023/05/23 09:06:23;;;;;;;17.90;12.80;;;;;;;;;;4983305;28;20077;-65
2023/05/23 09:08:48;;;;;;;15.65;12.90;;;;;;;;;;4986199;28;20088;-65
2023/05/23 09:11:17;;;;;;;20.50;13.70;;;;;;;;;;4983224;28;20092;-65
2023/05/23 09:13:44;;;;;;;18.17;13.93;;;;;;;;;;4986048;28;20125;-65
2023/05/23 09:16:16;;;;;;;15.60;11.70;;;;;;;;;;4982507;28;20041;-65
2023/05/23 09:18:52;;;;;;;18.08;13.65;;;;;;;;;;4979797;28;20052;-65
2023/05/23 09:21:20;;;;;;;18.15;13.98;;;;;;;;;;5006085;28;20080;-65
2023/05/23 09:24:04;;;;;;;17.75;14.02;;;;;;;;;;4980592;28;20042;-65
2023/05/23 09:26:30;;;;;;;13.43;10.45;;;;;;;;;;4989446;28;20396;-65
2023/05/23 09:28:59;;;;;;;14.43;12.60;;;;;;;;;;4987607;28;20493;-65
2023/05/23 09:31:27;;;;;;;15.27;12.27;;;;;;;;;;4984927;28;20038;-65
2023/05/23 09:33:53;;;;;;;14.75;11.82;;;;;;;;;;4986687;28;20103;-65
2023/05/23 09:36:19;;;;;;;19.60;12.90;;;;;;;;;;4984054;28;20445;-67
2023/05/23 09:38:47;;;;;;;17.60;13.20;;;;;;;;;;4986661;28;20034;-66
2023/05/23 09:41:13;;;;;;;15.32;11.23;;;;;;;;;;4982608;28;20036;-66
2023/05/23 09:43:48;;;;;;;15.70;11.98;;;;;;;;;;4984138;28;20045;-66
2023/05/23 09:46:14;;;;;;;15.13;12.48;;;;;;;;;;4984149;28;20632;-65
2023/05/23 09:48:46;;;;;;;17.42;11.82;;;;;;;;;;4983864;28;20125;-66
2023/05/23 09:51:11;;;;;;;15.52;12.48;;;;;;;;;;5003104;28;20030;-65
2023/05/23 09:53:37;;;;;;;16.20;12.88;;;;;;;;;;4983892;28;20121;-65
2023/05/23 09:56:03;;;;;;;14.80;12.27;;;;;;;;;;5002310;28;20038;-65
2023/05/23 09:58:29;;;;;;;9.50;8.55;;;;;;;;;;4996629;28;20812;-65
2023/05/23 10:00:56;;;;;;;15.90;11.00;;;;;;;;;;5001252;28;20030;-65
2023/05/23 10:03:49;;;;;;;16.77;12.73;;;;;;;;;;5003067;28;20030;-65
2023/05/23 10:06:25;;;;;;;16.98;12.35;;;;;;;;;;4988420;28;20052;-65
2023/05/23 10:09:16;;;;;;;15.23;12.55;;;;;;;;;;4998916;28;20030;-66
2023/05/23 10:12:10;;;;;;;17.88;11.85;;;;;;;;;;4999682;28;20185;-65
2023/05/23 10:14:40;;;;;;;18.92;11.07;;;;;;;;;;5000797;28;20034;-66
2023/05/23 10:17:19;;;;;;;15.60;11.45;;;;;;;;;;5005043;28;20048;-66
2023/05/23 10:20:07;;;;;;;15.30;11.40;;;;;;;;;;5007012;28;20065;-66
2023/05/23 10:22:35;;;;;;;13.35;10.77;;;;;;;;;;5010632;28;20036;-65
2023/05/23 10:25:02;;;;;;;15.23;11.25;;;;;;;;;;5001835;28;20092;-65
2023/05/23 10:27:28;;;;;;;17.17;11.63;;;;;;;;;;4999742;28;20124;-65
2023/05/23 10:29:54;;;;;;;13.85;10.48;;;;;;;;;;5010234;28;20112;-65
2023/05/23 10:32:20;;;;;;;12.95;10.10;;;;;;;;;;5004906;28;20036;-65
2023/05/23 10:34:56;;;;;;;16.65;11.45;;;;;;;;;;5007969;28;20040;-65
2023/05/23 10:37:30;;;;;;;13.77;10.13;;;;;;;;;;5009271;28;20038;-65
2023/05/23 10:40:29;;;;;;;14.27;10.38;;;;;;;;;;5006767;28;20046;-65
2023/05/23 10:43:05;;;;;;;11.90;10.27;;;;;;;;;;5003456;28;20395;-65
2023/05/23 10:45:41;;;;;;;12.45;10.40;;;;;;;;;;5010628;28;20042;-65
2023/05/23 10:48:31;;;;;;;16.05;11.57;;;;;;;;;;5002436;28;20046;-65
2023/05/23 10:51:07;;;;;;;13.60;10.50;;;;;;;;;;5000761;28;20057;-65
2023/05/23 10:53:37;;;;;;;13.75;10.02;;;;;;;;;;5001974;28;20046;-65
2023/05/23 10:56:08;;;;;;;14.65;10.90;;;;;;;;;;5001380;28;20423;-65
2023/05/23 10:58:35;;;;;;;14.55;10.13;;;;;;;;;;4998881;28;20398;-65
2023/05/23 11:01:08;;;;;;;12.90;10.13;;;;;;;;;;5000206;28;20121;-65
2023/05/23 11:03:48;;;;;;;13.60;10.05;;;;;;;;;;5006212;28;20085;-65
2023/05/23 11:06:43;;;;;;;13.35;10.63;;;;;;;;;;5004108;28;20058;-65
2023/05/23 11:09:11;;;;;;;15.80;9.77;;;;;;;;;;5001770;28;20034;-65
2023/05/23 11:11:49;;;;;;;12.60;10.13;;;;;;;;;;5003119;28;20038;-65
2023/05/23 11:14:15;;;;;;;10.50;9.27;;;;;;;;;;5004838;28;20512;-65
2023/05/23 11:16:42;;;;;;;13.30;9.80;;;;;;;;;;5003312;28;20328;-65
2023/05/23 11:19:17;;;;;;;11.43;8.95;;;;;;;;;;5007574;28;20050;-64
2023/05/23 11:21:48;;;;;;;9.90;8.73;;;;;;;;;;4999662;28;20045;-64
2023/05/23 11:24:14;;;;;;;10.15;8.45;;;;;;;;;;5001250;28;20041;-65
2023/05/23 11:26:51;;;;;;;9.65;8.65;;;;;;;;;;4999029;28;20038;-64
2023/05/23 11:29:18;;;;;;;11.02;8.93;;;;;;;;;;5000965;28;20073;-65
2023/05/23 11:31:43;;;;;;;11.02;9.90;;;;;;;;;;5001453;28;20046;-65
2023/05/23 11:34:10;;;;;;;12.02;9.35;;;;;;;;;;4997067;28;20167;-65
2023/05/23 11:36:36;;;;;;;10.95;9.00;;;;;;;;;;5000302;28;20033;-65
2023/05/23 11:39:03;;;;;;;10.35;9.30;;;;;;;;;;5001130;28;20048;-63
2023/05/23 11:41:33;;;;;;;12.20;8.68;;;;;;;;;;4999793;28;20034;-65
2023/05/23 11:44:00;;;;;;;17.27;9.73;;;;;;;;;;5002787;28;20065;-65
2023/05/23 11:46:26;;;;;;;10.70;8.63;;;;;;;;;;4998397;28;20422;-64
2023/05/23 11:48:52;;;;;;;8.05;7.28;;;;;;;;;;5004725;28;20440;-65
2023/05/23 11:51:20;;;;;;;8.60;7.65;;;;;;;;;;5003385;28;20034;-66
2023/05/23 11:53:46;;;;;;;8.98;8.07;;;;;;;;;;4997024;28;20044;-66
2023/05/23 11:56:14;;;;;;;8.82;7.90;;;;;;;;;;5002004;28;20425;-66
2023/05/23 11:58:40;;;;;;;8.80;7.60;;;;;;;;;;5001712;28;20030;-66
2023/05/23 12:01:07;;;;;;;8.88;7.97;;;;;;;;;;5000648;28;20034;-66
2023/05/23 12:03:34;;;;;;;8.13;7.32;;;;;;;;;;5002169;28;20037;-66
2023/05/23 12:06:03;;;;;;;8.25;7.38;;;;;;;;;;4993909;28;20525;-66
2023/05/23 12:08:29;;;;;;;8.65;7.80;;;;;;;;;;5000392;28;20113;-66
2023/05/23 12:10:59;;;;;;;8.98;8.07;;;;;;;;;;5003278;28;20062;-66
2023/05/23 12:13:26;;;;;;;10.60;9.60;;;;;;;;;;5002510;28;20040;-66
2023/05/23 12:16:00;;;;;;;10.05;9.10;;;;;;;;;;4997229;28;20030;-66
2023/05/23 12:18:30;;;;;;;10.77;8.13;;;;;;;;;;4996127;28;20041;-65
2023/05/23 12:21:04;;;;;;;9.15;8.25;;;;;;;;;;5005586;28;20034;-66
2023/05/23 12:23:30;;;;;;;10.07;8.98;;;;;;;;;;4998284;28;20549;-66
2023/05/23 12:25:57;;;;;;;10.25;8.73;;;;;;;;;;4999462;28;20046;-66
2023/05/23 12:28:43;;;;;;;10.75;8.38;;;;;;;;;;4997196;28;20556;-66
2023/05/23 12:31:20;;;;;;;8.93;8.13;;;;;;;;;;5006432;28;20029;-66
2023/05/23 12:33:47;;;;;;;9.85;8.85;;;;;;;;;;5002968;28;20091;-65
2023/05/23 12:36:24;;;;;;;8.25;7.18;;;;;;;;;;4998069;28;20569;-66
2023/05/23 12:38:50;;;;;;;8.18;7.38;;;;;;;;;;5003260;28;20080;-66
2023/05/23 12:41:18;;;;;;;9.57;7.32;;;;;;;;;;4997304;28;20066;-66
2023/05/23 12:43:51;;;;;;;10.43;7.73;;;;;;;;;;4999418;28;20038;-66
2023/05/23 12:46:17;;;;;;;7.30;6.55;;;;;;;;;;4998072;28;20030;-66
2023/05/23 12:48:43;;;;;;;8.13;7.43;;;;;;;;;;4998303;28;20509;-66
2023/05/23 12:51:09;;;;;;;9.10;7.72;;;;;;;;;;5002472;28;20030;-66
2023/05/23 12:53:35;;;;;;;10.13;8.20;;;;;;;;;;5002024;28;20049;-66
2023/05/23 12:56:00;;;;;;;8.38;7.63;;;;;;;;;;4994030;28;20068;-66
2023/05/23 12:58:27;;;;;;;8.48;7.65;;;;;;;;;;5001178;28;20034;-66
2023/05/23 13:00:52;;;;;;;10.23;8.23;;;;;;;;;;4979720;28;20072;-66
2023/05/23 13:03:18;;;;;;;9.55;7.78;;;;;;;;;;5002406;28;20042;-66
2023/05/23 13:05:44;;;;;;;7.45;6.75;;;;;;;;;;4999711;28;20537;-66
2023/05/23 13:08:11;;;;;;;7.72;6.93;;;;;;;;;;4991906;28;20045;-65
2023/05/23 13:10:37;;;;;;;8.57;7.47;;;;;;;;;;5002246;28;20034;-66
2023/05/23 13:13:03;;;;;;;8.18;7.38;;;;;;;;;;4998025;28;20133;-65
2023/05/23 13:15:28;;;;;;;7.57;6.88;;;;;;;;;;5001666;28;20130;-66
2023/05/23 13:17:54;;;;;;;7.88;7.13;;;;;;;;;;4991593;28;20153;-66
2023/05/23 13:20:21;;;;;;;7.93;7.18;;;;;;;;;;4996086;28;20040;-66
2023/05/23 13:22:47;;;;;;;7.72;7.03;;;;;;;;;;5000870;28;20512;-66
2023/05/23 13:25:12;;;;;;;7.53;6.82;;;;;;;;;;4993023;28;20526;-66
2023/05/23 13:27:38;;;;;;;8.98;7.10;;;;;;;;;;4999384;28;20041;-66
2023/05/23 13:30:04;;;;;;;7.63;6.97;;;;;;;;;;4996930;28;20041;-65
2023/05/23 13:32:30;;;;;;;7.90;7.10;;;;;;;;;;5002057;28;20034;-65
2023/05/23 13:34:55;;;;;;;6.90;6.20;;;;;;;;;;4992274;28;20053;-66
2023/05/23 13:37:21;;;;;;;7.22;6.60;;;;;;;;;;4996553;28;20038;-66
2023/05/23 13:39:46;;;;;;;6.18;5.68;;;;;;;;;;4998645;28;20030;-66
2023/05/23 13:42:12;;;;;;;6.38;5.88;;;;;;;;;;4994306;28;20034;-66
2023/05/23 13:44:38;;;;;;;7.13;6.38;;;;;;;;;;5005094;28;20041;-65
2023/05/23 13:47:11;;;;;;;6.47;5.88;;;;;;;;;;4996458;28;20034;-65
2023/05/23 13:49:37;;;;;;;6.18;5.65;;;;;;;;;;4997775;28;20498;-65
2023/05/23 13:52:02;;;;;;;9.63;5.60;;;;;;;;;;4999452;28;20071;-66
2023/05/23 13:54:28;;;;;;;6.78;5.90;;;;;;;;;;4999037;28;20351;-65
2023/05/23 13:56:53;;;;;;;7.65;6.40;;;;;;;;;;5000314;28;20042;-66
2023/05/23 13:59:20;;;;;;;6.75;6.15;;;;;;;;;;4995182;28;20030;-65
2023/05/23 14:01:48;;;;;;;6.20;5.57;;;;;;;;;;4998846;28;20038;-66
2023/05/23 14:04:14;;;;;;;6.38;5.82;;;;;;;;;;4996796;28;20554;-66
2023/05/23 14:06:40;;;;;;;6.00;5.47;;;;;;;;;;5001278;28;20121;-65
2023/05/23 14:09:05;;;;;;;7.53;5.65;;;;;;;;;;4993378;28;20037;-66
2023/05/23 14:11:31;;;;;;;5.80;5.30;;;;;;;;;;4996709;28;20504;-66
2023/05/23 14:13:57;;;;;;;6.00;5.50;;;;;;;;;;5004401;28;20501;-66
2023/05/23 14:16:23;;;;;;;5.43;5.00;;;;;;;;;;4994851;28;20045;-65
2023/05/23 14:18:48;;;;;;;6.05;5.55;;;;;;;;;;5000730;28;20408;-65
2023/05/23 14:21:14;;;;;;;6.43;5.93;;;;;;;;;;4995983;28;20068;-65
2023/05/23 14:23:40;;;;;;;6.40;5.90;;;;;;;;;;4996269;28;20337;-65
2023/05/23 14:26:06;;;;;;;6.85;6.20;;;;;;;;;;5000415;28;20034;-65
2023/05/23 14:28:31;;;;;;;6.40;5.90;;;;;;;;;;5001011;28;20041;-66